Addicks, Texas
Current Conditions -  °F | °C
As of 10:53 PM on Saturday 25 Oct 2014 (Local Time) from KSGR Reporting Station
Clear Clear  
Wind Chill: 63°   Ceiling: Unl
Heat Index: 63°   Visibility: 10mi
Dew Point: 59°   Wind: 3mph
Humidity: 87%   Direction: 190°S
Pressure: 30.11"   Gusts: NA
Location:  29.7757°N, 95.6037°W
Report Text: KSGR 260353Z AUTO 19003KT 10SM CLR 17/15 A3011 RMK AO2 SLP196 T01720150
Loading
Personal Weather Stations






























Interactive Weather Map New forecast layout! Learn more

10-Day Weather Forecast

Advertisements
Track Severe Weather on mobile